DECOU EYKS-EVRS
Flight info
| Callsign | DECOU |
|---|---|
| Flight time | 1h 47m |
| Altitude | 2500 |
| Route | SML |
| Aircraft | C172/L-VGD/A |
Departure
| Time | 2026-05-04 20:54 |
|---|---|
| Airport | S. Darius and S. Girėnas Airfield (EYKS) |
Arrival
| Time | 2026-05-04 22:42 |
|---|---|
| Airport | Spilve Aerodrome (EVRS) |
| Time | Latitude | Longitude | Altitude | Speed | Heading |
|---|---|---|---|---|---|
| 2026-05-04 20:45 | 54.87834 | 23.88622 | 233 ft | 0 kts | 172° |
| 2026-05-04 20:50 | 54.87828 | 23.88611 | 233 ft | 2 kts | 280° |
| 2026-05-04 20:50 | 54.87849 | 23.88621 | 233 ft | 7 kts | 79° |
| 2026-05-04 20:50 | 54.87848 | 23.88728 | 233 ft | 11 kts | 94° |
| 2026-05-04 20:51 | 54.87844 | 23.88858 | 233 ft | 9 kts | 66° |
| 2026-05-04 20:51 | 54.87890 | 23.88937 | 234 ft | 10 kts | 36° |
| 2026-05-04 20:51 | 54.87901 | 23.88950 | 234 ft | 0 kts | 35° |
| 2026-05-04 20:52 | 54.87926 | 23.88978 | 233 ft | 10 kts | 35° |
| 2026-05-04 20:53 | 54.87956 | 23.88982 | 233 ft | 2 kts | 272° |
| 2026-05-04 20:53 | 54.87967 | 23.88665 | 235 ft | 50 kts | 272° |
| 2026-05-04 20:53 | 54.87980 | 23.87874 | 352 ft | 70 kts | 273° |
| 2026-05-04 20:53 | 54.87998 | 23.87005 | 534 ft | 77 kts | 274° |
| 2026-05-04 20:54 | 54.87920 | 23.86035 | 690 ft | 89 kts | 238° |
| 2026-05-04 20:54 | 54.87356 | 23.85725 | 949 ft | 95 kts | 164° |
| 2026-05-04 20:54 | 54.86911 | 23.86671 | 961 ft | 115 kts | 105° |
| 2026-05-04 20:54 | 54.86730 | 23.88016 | 969 ft | 113 kts | 102° |
| 2026-05-04 20:55 | 54.86448 | 23.89201 | 1010 ft | 105 kts | 137° |
| 2026-05-04 20:55 | 54.85909 | 23.90123 | 941 ft | 110 kts | 139° |
| 2026-05-04 20:55 | 54.85365 | 23.91039 | 931 ft | 111 kts | 139° |
| 2026-05-04 20:55 | 54.84833 | 23.91968 | 974 ft | 108 kts | 137° |
| 2026-05-04 20:56 | 54.84298 | 23.92919 | 960 ft | 113 kts | 137° |
| 2026-05-04 20:56 | 54.83739 | 23.93895 | 953 ft | 113 kts | 137° |
| 2026-05-04 20:56 | 54.83277 | 23.94963 | 979 ft | 113 kts | 115° |
| 2026-05-04 20:56 | 54.83088 | 23.96298 | 964 ft | 114 kts | 102° |
| 2026-05-04 20:57 | 54.82945 | 23.97667 | 925 ft | 117 kts | 99° |
| 2026-05-04 20:57 | 54.82810 | 23.99045 | 905 ft | 114 kts | 103° |
| 2026-05-04 20:57 | 54.82636 | 24.00329 | 960 ft | 110 kts | 104° |
| 2026-05-04 20:57 | 54.82452 | 24.01677 | 935 ft | 114 kts | 107° |
| 2026-05-04 20:58 | 54.82240 | 24.02981 | 958 ft | 112 kts | 107° |
| 2026-05-04 20:58 | 54.82037 | 24.04285 | 964 ft | 112 kts | 101° |
| 2026-05-04 20:58 | 54.81953 | 24.05619 | 993 ft | 111 kts | 93° |
| 2026-05-04 20:58 | 54.81969 | 24.06976 | 1052 ft | 114 kts | 83° |
| 2026-05-04 20:59 | 54.82068 | 24.08384 | 1058 ft | 119 kts | 81° |
| 2026-05-04 20:59 | 54.82182 | 24.09817 | 1009 ft | 123 kts | 81° |
| 2026-05-04 20:59 | 54.82293 | 24.11271 | 1029 ft | 120 kts | 81° |
| 2026-05-04 20:59 | 54.82411 | 24.12696 | 1032 ft | 121 kts | 79° |
| 2026-05-04 21:00 | 54.82544 | 24.14143 | 1031 ft | 122 kts | 79° |
| 2026-05-04 21:00 | 54.82646 | 24.15590 | 1062 ft | 120 kts | 89° |
| 2026-05-04 21:00 | 54.82589 | 24.17059 | 1061 ft | 123 kts | 97° |
| 2026-05-04 21:00 | 54.82484 | 24.18559 | 1065 ft | 126 kts | 99° |
| 2026-05-04 21:01 | 54.82354 | 24.20078 | 1048 ft | 128 kts | 100° |
| 2026-05-04 21:01 | 54.82193 | 24.21609 | 954 ft | 131 kts | 101° |
| 2026-05-04 21:01 | 54.82009 | 24.23131 | 888 ft | 129 kts | 105° |
| 2026-05-04 21:01 | 54.81777 | 24.24600 | 879 ft | 123 kts | 107° |
| 2026-05-04 21:02 | 54.81545 | 24.25998 | 942 ft | 120 kts | 107° |
| 2026-05-04 21:02 | 54.81301 | 24.27397 | 940 ft | 122 kts | 109° |
| 2026-05-04 21:02 | 54.81035 | 24.28791 | 936 ft | 121 kts | 109° |
| 2026-05-04 21:02 | 54.80778 | 24.30179 | 969 ft | 120 kts | 109° |
| 2026-05-04 21:03 | 54.80535 | 24.31556 | 1001 ft | 118 kts | 107° |
| 2026-05-04 21:03 | 54.80311 | 24.32926 | 1009 ft | 117 kts | 108° |
| 2026-05-04 21:03 | 54.80082 | 24.34282 | 1032 ft | 118 kts | 108° |
| 2026-05-04 21:03 | 54.79835 | 24.35649 | 1034 ft | 119 kts | 108° |
| 2026-05-04 21:04 | 54.79597 | 24.37020 | 1050 ft | 119 kts | 107° |
| 2026-05-04 21:04 | 54.79393 | 24.38276 | 1275 ft | 104 kts | 104° |
| 2026-05-04 21:04 | 54.79187 | 24.39555 | 1373 ft | 114 kts | 105° |
| 2026-05-04 21:04 | 54.78960 | 24.40911 | 1553 ft | 120 kts | 107° |
| 2026-05-04 21:05 | 54.78719 | 24.42321 | 1776 ft | 123 kts | 107° |
| 2026-05-04 21:05 | 54.78488 | 24.43715 | 2082 ft | 117 kts | 106° |
| 2026-05-04 21:05 | 54.78281 | 24.45112 | 2283 ft | 121 kts | 107° |
| 2026-05-04 21:05 | 54.78090 | 24.46541 | 2494 ft | 126 kts | 105° |
| 2026-05-04 21:06 | 54.77875 | 24.48073 | 2518 ft | 136 kts | 108° |
| 2026-05-04 21:06 | 54.77633 | 24.49657 | 2517 ft | 137 kts | 107° |
| 2026-05-04 21:06 | 54.77340 | 24.51198 | 2549 ft | 133 kts | 113° |
| 2026-05-04 21:06 | 54.77011 | 24.52654 | 2615 ft | 126 kts | 114° |
| 2026-05-04 21:07 | 54.76694 | 24.54049 | 2663 ft | 124 kts | 116° |
| 2026-05-04 21:07 | 54.76394 | 24.55459 | 2699 ft | 126 kts | 112° |
| 2026-05-04 21:07 | 54.76089 | 24.56968 | 2552 ft | 139 kts | 112° |
| 2026-05-04 21:07 | 54.75741 | 24.58544 | 2470 ft | 141 kts | 114° |
| 2026-05-04 21:08 | 54.75390 | 24.60125 | 2383 ft | 141 kts | 112° |
| 2026-05-04 21:08 | 54.75058 | 24.61707 | 2397 ft | 137 kts | 109° |
| 2026-05-04 21:08 | 54.74828 | 24.63300 | 2412 ft | 136 kts | 103° |
| 2026-05-04 21:08 | 54.74636 | 24.64886 | 2419 ft | 137 kts | 102° |
| 2026-05-04 21:09 | 54.74444 | 24.66510 | 2411 ft | 138 kts | 103° |
| 2026-05-04 21:09 | 54.74237 | 24.68132 | 2402 ft | 138 kts | 105° |
| 2026-05-04 21:09 | 54.73966 | 24.69728 | 2393 ft | 137 kts | 109° |
| 2026-05-04 21:09 | 54.73676 | 24.71289 | 2389 ft | 135 kts | 109° |
| 2026-05-04 21:10 | 54.73404 | 24.72841 | 2385 ft | 134 kts | 108° |
| 2026-05-04 21:10 | 54.73145 | 24.74370 | 2389 ft | 131 kts | 108° |
| 2026-05-04 21:10 | 54.72890 | 24.75872 | 2384 ft | 129 kts | 111° |
| 2026-05-04 21:10 | 54.72566 | 24.77300 | 2388 ft | 126 kts | 116° |
| 2026-05-04 21:11 | 54.72201 | 24.78670 | 2396 ft | 126 kts | 118° |
| 2026-05-04 21:11 | 54.71812 | 24.80055 | 2411 ft | 130 kts | 119° |
| 2026-05-04 21:11 | 54.71401 | 24.81488 | 2430 ft | 136 kts | 119° |
| 2026-05-04 21:11 | 54.70975 | 24.82943 | 2415 ft | 138 kts | 119° |
| 2026-05-04 21:12 | 54.70527 | 24.84404 | 2399 ft | 136 kts | 123° |
| 2026-05-04 21:12 | 54.70035 | 24.85795 | 2382 ft | 134 kts | 126° |
| 2026-05-04 21:12 | 54.69534 | 24.87124 | 2402 ft | 131 kts | 127° |
| 2026-05-04 21:12 | 54.69023 | 24.88439 | 2397 ft | 132 kts | 127° |
| 2026-05-04 21:13 | 54.68482 | 24.89687 | 2384 ft | 128 kts | 135° |
| 2026-05-04 21:13 | 54.67842 | 24.90730 | 2409 ft | 127 kts | 146° |
| 2026-05-04 21:13 | 54.67104 | 24.91583 | 2431 ft | 129 kts | 156° |
| 2026-05-04 21:13 | 54.66291 | 24.92224 | 2394 ft | 127 kts | 166° |
| 2026-05-04 21:14 | 54.65472 | 24.92749 | 2380 ft | 124 kts | 168° |
| 2026-05-04 21:14 | 54.64691 | 24.93366 | 2394 ft | 128 kts | 141° |
| 2026-05-04 21:14 | 54.64356 | 24.94774 | 2398 ft | 132 kts | 93° |
| 2026-05-04 21:14 | 54.64650 | 24.96171 | 2407 ft | 123 kts | 34° |
| 2026-05-04 21:15 | 54.65402 | 24.96566 | 2385 ft | 110 kts | 356° |
| 2026-05-04 21:15 | 54.66149 | 24.96602 | 2381 ft | 105 kts | 352° |
| 2026-05-04 21:15 | 54.66872 | 24.96587 | 2380 ft | 103 kts | 350° |
| 2026-05-04 21:15 | 54.67569 | 24.96556 | 2393 ft | 101 kts | 349° |
| 2026-05-04 21:16 | 54.68275 | 24.96515 | 2427 ft | 103 kts | 350° |
| 2026-05-04 21:16 | 54.69014 | 24.96461 | 2447 ft | 109 kts | 349° |
| 2026-05-04 21:16 | 54.69778 | 24.96404 | 2397 ft | 109 kts | 349° |
| 2026-05-04 21:16 | 54.70530 | 24.96350 | 2383 ft | 107 kts | 349° |
| 2026-05-04 21:17 | 54.71268 | 24.96301 | 2384 ft | 105 kts | 349° |
| 2026-05-04 21:17 | 54.72007 | 24.96255 | 2419 ft | 107 kts | 349° |
| 2026-05-04 21:17 | 54.72751 | 24.96215 | 2405 ft | 107 kts | 349° |
| 2026-05-04 21:17 | 54.73493 | 24.96184 | 2398 ft | 106 kts | 349° |
| 2026-05-04 21:18 | 54.74230 | 24.96157 | 2411 ft | 107 kts | 349° |
| 2026-05-04 21:18 | 54.74969 | 24.96133 | 2392 ft | 106 kts | 349° |
| 2026-05-04 21:18 | 54.75701 | 24.96114 | 2390 ft | 105 kts | 349° |
| 2026-05-04 21:18 | 54.76428 | 24.96098 | 2395 ft | 104 kts | 349° |
| 2026-05-04 21:19 | 54.77146 | 24.96085 | 2392 ft | 104 kts | 349° |
| 2026-05-04 21:19 | 54.77871 | 24.96071 | 2386 ft | 103 kts | 349° |
| 2026-05-04 21:19 | 54.78586 | 24.96054 | 2389 ft | 102 kts | 349° |
| 2026-05-04 21:19 | 54.79300 | 24.96035 | 2394 ft | 102 kts | 349° |
| 2026-05-04 21:20 | 54.79948 | 24.95745 | 2384 ft | 93 kts | 320° |
| 2026-05-04 21:20 | 54.80485 | 24.95124 | 2388 ft | 91 kts | 315° |
| 2026-05-04 21:20 | 54.80955 | 24.94391 | 2395 ft | 90 kts | 311° |
| 2026-05-04 21:20 | 54.81395 | 24.93630 | 2399 ft | 91 kts | 310° |
| 2026-05-04 21:21 | 54.81836 | 24.92840 | 2401 ft | 92 kts | 309° |
| 2026-05-04 21:21 | 54.82278 | 24.92029 | 2407 ft | 92 kts | 309° |
| 2026-05-04 21:21 | 54.82722 | 24.91218 | 2420 ft | 96 kts | 309° |
| 2026-05-04 21:21 | 54.83187 | 24.90368 | 2426 ft | 98 kts | 309° |
| 2026-05-04 21:22 | 54.83661 | 24.89505 | 2398 ft | 98 kts | 309° |
| 2026-05-04 21:22 | 54.84129 | 24.88668 | 2387 ft | 95 kts | 309° |
| 2026-05-04 21:22 | 54.84584 | 24.87858 | 2385 ft | 92 kts | 309° |
| 2026-05-04 21:22 | 54.85037 | 24.87084 | 2383 ft | 92 kts | 317° |
| 2026-05-04 21:23 | 54.85670 | 24.86738 | 2388 ft | 97 kts | 336° |
| 2026-05-04 21:23 | 54.86327 | 24.86474 | 2394 ft | 98 kts | 337° |
| 2026-05-04 21:23 | 54.86990 | 24.86217 | 2388 ft | 97 kts | 336° |
| 2026-05-04 21:23 | 54.87642 | 24.85919 | 2395 ft | 97 kts | 335° |
| 2026-05-04 21:24 | 54.88295 | 24.85592 | 2412 ft | 99 kts | 334° |
| 2026-05-04 21:24 | 54.88973 | 24.85236 | 2427 ft | 104 kts | 334° |
| 2026-05-04 21:24 | 54.89665 | 24.84864 | 2401 ft | 104 kts | 334° |
| 2026-05-04 21:24 | 54.90356 | 24.84493 | 2403 ft | 104 kts | 334° |
| 2026-05-04 21:25 | 54.91046 | 24.84116 | 2408 ft | 106 kts | 334° |
| 2026-05-04 21:25 | 54.91753 | 24.83728 | 2403 ft | 107 kts | 334° |
| 2026-05-04 21:25 | 54.92460 | 24.83344 | 2401 ft | 106 kts | 334° |
| 2026-05-04 21:25 | 54.93163 | 24.82973 | 2398 ft | 105 kts | 334° |
| 2026-05-04 21:26 | 54.93862 | 24.82611 | 2385 ft | 103 kts | 334° |
| 2026-05-04 21:26 | 54.94545 | 24.82260 | 2376 ft | 101 kts | 334° |
| 2026-05-04 21:26 | 54.95215 | 24.81918 | 2377 ft | 99 kts | 334° |
| 2026-05-04 21:26 | 54.95654 | 24.81697 | 2379 ft | 99 kts | 334° |
| 2026-05-04 21:27 | 54.96313 | 24.81369 | 2373 ft | 98 kts | 333° |
| 2026-05-04 21:27 | 54.96985 | 24.81081 | 2407 ft | 101 kts | 337° |
| 2026-05-04 21:27 | 54.97927 | 24.80742 | 2402 ft | 106 kts | 338° |
| 2026-05-04 21:27 | 54.98651 | 24.80502 | 2384 ft | 105 kts | 339° |
| 2026-05-04 21:28 | 54.99119 | 24.80351 | 2384 ft | 103 kts | 339° |
| 2026-05-04 21:28 | 54.99832 | 24.80124 | 2416 ft | 106 kts | 339° |
| 2026-05-04 21:28 | 55.00568 | 24.79886 | 2406 ft | 109 kts | 339° |
| 2026-05-04 21:28 | 55.01319 | 24.79655 | 2390 ft | 110 kts | 341° |
| 2026-05-04 21:29 | 55.02077 | 24.79475 | 2376 ft | 110 kts | 342° |
| 2026-05-04 21:29 | 55.02828 | 24.79326 | 2363 ft | 107 kts | 342° |
| 2026-05-04 21:29 | 55.03555 | 24.79213 | 2357 ft | 103 kts | 343° |
| 2026-05-04 21:29 | 55.04251 | 24.79127 | 2357 ft | 98 kts | 343° |
| 2026-05-04 21:30 | 55.04929 | 24.79057 | 2391 ft | 98 kts | 343° |
| 2026-05-04 21:30 | 55.05601 | 24.78985 | 2387 ft | 98 kts | 343° |
| 2026-05-04 21:30 | 55.06288 | 24.78904 | 2402 ft | 100 kts | 343° |
| 2026-05-04 21:30 | 55.06985 | 24.78816 | 2395 ft | 101 kts | 343° |
| 2026-05-04 21:31 | 55.08409 | 24.78615 | 2381 ft | 103 kts | 343° |
| 2026-05-04 21:31 | 55.09115 | 24.78519 | 2370 ft | 101 kts | 343° |
| 2026-05-04 21:31 | 55.09812 | 24.78427 | 2378 ft | 100 kts | 343° |
| 2026-05-04 21:32 | 55.10511 | 24.78348 | 2395 ft | 102 kts | 343° |
| 2026-05-04 21:32 | 55.11229 | 24.78265 | 2399 ft | 104 kts | 343° |
| 2026-05-04 21:32 | 55.11960 | 24.78168 | 2405 ft | 106 kts | 343° |
| 2026-05-04 21:32 | 55.12702 | 24.78030 | 2402 ft | 108 kts | 342° |
| 2026-05-04 21:33 | 55.13452 | 24.77850 | 2400 ft | 110 kts | 341° |
| 2026-05-04 21:33 | 55.14209 | 24.77664 | 2381 ft | 109 kts | 340° |
| 2026-05-04 21:33 | 55.14952 | 24.77478 | 2377 ft | 109 kts | 340° |
| 2026-05-04 21:33 | 55.15696 | 24.77276 | 2377 ft | 107 kts | 340° |
| 2026-05-04 21:34 | 55.16425 | 24.77076 | 2378 ft | 105 kts | 340° |
| 2026-05-04 21:34 | 55.17142 | 24.76885 | 2367 ft | 103 kts | 340° |
| 2026-05-04 21:34 | 55.17850 | 24.76698 | 2384 ft | 103 kts | 340° |
| 2026-05-04 21:34 | 55.18567 | 24.76508 | 2401 ft | 105 kts | 340° |
| 2026-05-04 21:35 | 55.19294 | 24.76314 | 2388 ft | 106 kts | 340° |
| 2026-05-04 21:35 | 55.20024 | 24.76121 | 2378 ft | 106 kts | 340° |
| 2026-05-04 21:35 | 55.20752 | 24.75933 | 2383 ft | 106 kts | 340° |
| 2026-05-04 21:35 | 55.21479 | 24.75753 | 2370 ft | 105 kts | 340° |
| 2026-05-04 21:36 | 55.22198 | 24.75583 | 2367 ft | 103 kts | 340° |
| 2026-05-04 21:36 | 55.22904 | 24.75425 | 2363 ft | 102 kts | 340° |
| 2026-05-04 21:36 | 55.23603 | 24.75272 | 2379 ft | 101 kts | 340° |
| 2026-05-04 21:36 | 55.24302 | 24.75098 | 2377 ft | 101 kts | 338° |
| 2026-05-04 21:37 | 55.24992 | 24.74885 | 2384 ft | 103 kts | 337° |
| 2026-05-04 21:37 | 55.25701 | 24.74650 | 2384 ft | 104 kts | 336° |
| 2026-05-04 21:37 | 55.26409 | 24.74407 | 2379 ft | 104 kts | 335° |
| 2026-05-04 21:37 | 55.27115 | 24.74135 | 2387 ft | 104 kts | 335° |
| 2026-05-04 21:38 | 55.27828 | 24.73838 | 2389 ft | 105 kts | 334° |
| 2026-05-04 21:38 | 55.28540 | 24.73530 | 2374 ft | 106 kts | 334° |
| 2026-05-04 21:38 | 55.29254 | 24.73223 | 2365 ft | 105 kts | 334° |
| 2026-05-04 21:38 | 55.29945 | 24.72934 | 2358 ft | 102 kts | 334° |
| 2026-05-04 21:39 | 55.30637 | 24.72648 | 2372 ft | 102 kts | 334° |
| 2026-05-04 21:39 | 55.31334 | 24.72357 | 2371 ft | 103 kts | 334° |
| 2026-05-04 21:39 | 55.32035 | 24.72064 | 2384 ft | 104 kts | 334° |
| 2026-05-04 21:39 | 55.32744 | 24.71764 | 2370 ft | 104 kts | 334° |
| 2026-05-04 21:40 | 55.33446 | 24.71463 | 2382 ft | 104 kts | 334° |
| 2026-05-04 21:40 | 55.34148 | 24.71147 | 2367 ft | 104 kts | 334° |
| 2026-05-04 21:40 | 55.34844 | 24.70828 | 2367 ft | 103 kts | 334° |
| 2026-05-04 21:40 | 55.35536 | 24.70513 | 2365 ft | 102 kts | 334° |
| 2026-05-04 21:41 | 55.36222 | 24.70200 | 2379 ft | 102 kts | 334° |
| 2026-05-04 21:41 | 55.36912 | 24.69880 | 2373 ft | 103 kts | 334° |
| 2026-05-04 21:41 | 55.37601 | 24.69558 | 2384 ft | 103 kts | 334° |
| 2026-05-04 21:41 | 55.38287 | 24.69229 | 2382 ft | 104 kts | 334° |
| 2026-05-04 21:42 | 55.38985 | 24.68895 | 2367 ft | 103 kts | 334° |
| 2026-05-04 21:42 | 55.39681 | 24.68563 | 2382 ft | 104 kts | 334° |
| 2026-05-04 21:42 | 55.40381 | 24.68229 | 2364 ft | 104 kts | 334° |
| 2026-05-04 21:42 | 55.41075 | 24.67899 | 2356 ft | 103 kts | 334° |
| 2026-05-04 21:43 | 55.41764 | 24.67574 | 2355 ft | 101 kts | 334° |
| 2026-05-04 21:43 | 55.42439 | 24.67261 | 2354 ft | 100 kts | 334° |
| 2026-05-04 21:43 | 55.43108 | 24.66957 | 2357 ft | 99 kts | 334° |
| 2026-05-04 21:43 | 55.43765 | 24.66659 | 2403 ft | 100 kts | 334° |
| 2026-05-04 21:44 | 55.44447 | 24.66344 | 2386 ft | 102 kts | 334° |
| 2026-05-04 21:44 | 55.45129 | 24.66034 | 2368 ft | 101 kts | 334° |
| 2026-05-04 21:44 | 55.45805 | 24.65731 | 2364 ft | 100 kts | 334° |
| 2026-05-04 21:44 | 55.46476 | 24.65433 | 2365 ft | 99 kts | 334° |
| 2026-05-04 21:45 | 55.47139 | 24.65131 | 2362 ft | 98 kts | 334° |
| 2026-05-04 21:45 | 55.47797 | 24.64824 | 2364 ft | 98 kts | 334° |
| 2026-05-04 21:45 | 55.48456 | 24.64519 | 2369 ft | 98 kts | 334° |
| 2026-05-04 21:45 | 55.49114 | 24.64205 | 2368 ft | 98 kts | 334° |
| 2026-05-04 21:46 | 55.49772 | 24.63890 | 2368 ft | 98 kts | 334° |
| 2026-05-04 21:46 | 55.50430 | 24.63573 | 2368 ft | 98 kts | 334° |
| 2026-05-04 21:46 | 55.51089 | 24.63256 | 2363 ft | 98 kts | 334° |
| 2026-05-04 21:46 | 55.51739 | 24.62944 | 2368 ft | 98 kts | 334° |
| 2026-05-04 21:47 | 55.52403 | 24.62626 | 2363 ft | 99 kts | 334° |
| 2026-05-04 21:47 | 55.53068 | 24.62305 | 2368 ft | 99 kts | 334° |
| 2026-05-04 21:47 | 55.53737 | 24.61980 | 2367 ft | 100 kts | 334° |
| 2026-05-04 21:47 | 55.54406 | 24.61652 | 2362 ft | 100 kts | 334° |
| 2026-05-04 21:48 | 55.55073 | 24.61321 | 2363 ft | 99 kts | 334° |
| 2026-05-04 21:48 | 55.55741 | 24.60988 | 2369 ft | 100 kts | 334° |
| 2026-05-04 21:48 | 55.56415 | 24.60648 | 2366 ft | 101 kts | 334° |
| 2026-05-04 21:48 | 55.57096 | 24.60300 | 2376 ft | 103 kts | 334° |
| 2026-05-04 21:49 | 55.57785 | 24.59944 | 2365 ft | 103 kts | 334° |
| 2026-05-04 21:49 | 55.58475 | 24.59586 | 2361 ft | 103 kts | 334° |
| 2026-05-04 21:49 | 55.59165 | 24.59224 | 2363 ft | 104 kts | 334° |
| 2026-05-04 21:49 | 55.59857 | 24.58859 | 2361 ft | 104 kts | 334° |
| 2026-05-04 21:50 | 55.60449 | 24.58540 | 2366 ft | 105 kts | 334° |
| 2026-05-04 21:50 | 55.61146 | 24.58163 | 2365 ft | 105 kts | 334° |
| 2026-05-04 21:50 | 55.61848 | 24.57780 | 2366 ft | 106 kts | 334° |
| 2026-05-04 21:50 | 55.62553 | 24.57390 | 2369 ft | 107 kts | 334° |
| 2026-05-04 21:51 | 55.63252 | 24.56998 | 2352 ft | 106 kts | 334° |
| 2026-05-04 21:51 | 55.63946 | 24.56610 | 2341 ft | 103 kts | 334° |
| 2026-05-04 21:51 | 55.64623 | 24.56236 | 2340 ft | 101 kts | 334° |
| 2026-05-04 21:51 | 55.65302 | 24.55862 | 2397 ft | 104 kts | 334° |
| 2026-05-04 21:52 | 55.66003 | 24.55468 | 2411 ft | 108 kts | 334° |
| 2026-05-04 21:52 | 55.66723 | 24.55073 | 2374 ft | 108 kts | 336° |
| 2026-05-04 21:52 | 55.67464 | 24.54774 | 2368 ft | 110 kts | 341° |
| 2026-05-04 21:52 | 55.68219 | 24.54546 | 2364 ft | 110 kts | 342° |
| 2026-05-04 21:53 | 55.68979 | 24.54337 | 2356 ft | 110 kts | 343° |
| 2026-05-04 21:53 | 55.69725 | 24.54137 | 2352 ft | 110 kts | 343° |
| 2026-05-04 21:53 | 55.70481 | 24.53933 | 2356 ft | 110 kts | 343° |
| 2026-05-04 21:53 | 55.71238 | 24.53736 | 2358 ft | 110 kts | 343° |
| 2026-05-04 21:54 | 55.71993 | 24.53533 | 2355 ft | 109 kts | 343° |
| 2026-05-04 21:54 | 55.72750 | 24.53335 | 2369 ft | 110 kts | 343° |
| 2026-05-04 21:54 | 55.73526 | 24.53129 | 2395 ft | 115 kts | 343° |
| 2026-05-04 21:54 | 55.74325 | 24.52908 | 2351 ft | 116 kts | 343° |
| 2026-05-04 21:55 | 55.75097 | 24.52701 | 2317 ft | 111 kts | 343° |
| 2026-05-04 21:55 | 55.75847 | 24.52506 | 2318 ft | 107 kts | 343° |
| 2026-05-04 21:55 | 55.76573 | 24.52321 | 2326 ft | 104 kts | 343° |
| 2026-05-04 21:55 | 55.77288 | 24.52144 | 2333 ft | 103 kts | 344° |
| 2026-05-04 21:56 | 55.78008 | 24.51995 | 2391 ft | 106 kts | 345° |
| 2026-05-04 21:56 | 55.78764 | 24.51865 | 2435 ft | 112 kts | 346° |
| 2026-05-04 21:56 | 55.79550 | 24.51746 | 2428 ft | 115 kts | 347° |
| 2026-05-04 21:56 | 55.80346 | 24.51631 | 2373 ft | 114 kts | 347° |
| 2026-05-04 21:57 | 55.81125 | 24.51519 | 2351 ft | 111 kts | 347° |
| 2026-05-04 21:57 | 55.81880 | 24.51415 | 2341 ft | 107 kts | 347° |
| 2026-05-04 21:57 | 55.82617 | 24.51317 | 2338 ft | 105 kts | 347° |
| 2026-05-04 21:57 | 55.83340 | 24.51226 | 2345 ft | 103 kts | 347° |
| 2026-05-04 21:58 | 55.84056 | 24.51140 | 2348 ft | 103 kts | 347° |
| 2026-05-04 21:58 | 55.84779 | 24.51050 | 2364 ft | 105 kts | 347° |
| 2026-05-04 21:58 | 55.85510 | 24.50952 | 2357 ft | 105 kts | 347° |
| 2026-05-04 21:58 | 55.86240 | 24.50854 | 2344 ft | 105 kts | 347° |
| 2026-05-04 21:59 | 55.86959 | 24.50763 | 2343 ft | 105 kts | 347° |
| 2026-05-04 21:59 | 55.87684 | 24.50677 | 2339 ft | 105 kts | 347° |
| 2026-05-04 21:59 | 55.88414 | 24.50595 | 2336 ft | 105 kts | 347° |
| 2026-05-04 21:59 | 55.89138 | 24.50514 | 2342 ft | 105 kts | 347° |
| 2026-05-04 22:00 | 55.89879 | 24.50427 | 2413 ft | 109 kts | 347° |
| 2026-05-04 22:00 | 55.90658 | 24.50325 | 2448 ft | 115 kts | 347° |
| 2026-05-04 22:00 | 55.91462 | 24.50216 | 2438 ft | 117 kts | 347° |
| 2026-05-04 22:00 | 55.92270 | 24.50103 | 2383 ft | 115 kts | 347° |
| 2026-05-04 22:01 | 55.93057 | 24.49980 | 2383 ft | 113 kts | 346° |
| 2026-05-04 22:01 | 55.93835 | 24.49808 | 2373 ft | 111 kts | 344° |
| 2026-05-04 22:01 | 55.94599 | 24.49622 | 2363 ft | 109 kts | 343° |
| 2026-05-04 22:01 | 55.95347 | 24.49438 | 2343 ft | 108 kts | 343° |
| 2026-05-04 22:02 | 55.96075 | 24.49262 | 2363 ft | 107 kts | 343° |
| 2026-05-04 22:02 | 55.96827 | 24.49071 | 2382 ft | 111 kts | 343° |
| 2026-05-04 22:02 | 55.97601 | 24.48871 | 2360 ft | 113 kts | 343° |
| 2026-05-04 22:02 | 55.98380 | 24.48669 | 2350 ft | 113 kts | 343° |
| 2026-05-04 22:03 | 55.99156 | 24.48468 | 2350 ft | 113 kts | 343° |
| 2026-05-04 22:03 | 55.99937 | 24.48270 | 2338 ft | 111 kts | 343° |
| 2026-05-04 22:03 | 56.00704 | 24.48078 | 2339 ft | 111 kts | 343° |
| 2026-05-04 22:03 | 56.01461 | 24.47884 | 2332 ft | 111 kts | 343° |
| 2026-05-04 22:04 | 56.02220 | 24.47688 | 2320 ft | 109 kts | 343° |
| 2026-05-04 22:04 | 56.02967 | 24.47499 | 2340 ft | 108 kts | 343° |
| 2026-05-04 22:04 | 56.03713 | 24.47310 | 2344 ft | 109 kts | 343° |
| 2026-05-04 22:04 | 56.04462 | 24.47117 | 2346 ft | 109 kts | 343° |
| 2026-05-04 22:05 | 56.05219 | 24.46923 | 2346 ft | 110 kts | 343° |
| 2026-05-04 22:05 | 56.05978 | 24.46721 | 2337 ft | 110 kts | 343° |
| 2026-05-04 22:05 | 56.06732 | 24.46513 | 2329 ft | 109 kts | 342° |
| 2026-05-04 22:05 | 56.07479 | 24.46306 | 2328 ft | 108 kts | 342° |
| 2026-05-04 22:06 | 56.08223 | 24.46099 | 2332 ft | 108 kts | 342° |
| 2026-05-04 22:06 | 56.08963 | 24.45892 | 2330 ft | 108 kts | 342° |
| 2026-05-04 22:06 | 56.09704 | 24.45682 | 2337 ft | 108 kts | 342° |
| 2026-05-04 22:06 | 56.10449 | 24.45469 | 2340 ft | 109 kts | 342° |
| 2026-05-04 22:07 | 56.11200 | 24.45255 | 2337 ft | 109 kts | 342° |
| 2026-05-04 22:07 | 56.11950 | 24.45041 | 2330 ft | 109 kts | 342° |
| 2026-05-04 22:07 | 56.12698 | 24.44829 | 2331 ft | 108 kts | 342° |
| 2026-05-04 22:07 | 56.13433 | 24.44623 | 2336 ft | 108 kts | 342° |
| 2026-05-04 22:08 | 56.14174 | 24.44416 | 2327 ft | 107 kts | 342° |
| 2026-05-04 22:08 | 56.14913 | 24.44208 | 2349 ft | 108 kts | 342° |
| 2026-05-04 22:08 | 56.15657 | 24.43993 | 2325 ft | 108 kts | 342° |
| 2026-05-04 22:08 | 56.16396 | 24.43783 | 2341 ft | 108 kts | 342° |
| 2026-05-04 22:09 | 56.17132 | 24.43576 | 2316 ft | 106 kts | 342° |
| 2026-05-04 22:09 | 56.17859 | 24.43372 | 2331 ft | 106 kts | 342° |
| 2026-05-04 22:09 | 56.18593 | 24.43163 | 2340 ft | 107 kts | 342° |
| 2026-05-04 22:09 | 56.19323 | 24.42952 | 2337 ft | 108 kts | 342° |
| 2026-05-04 22:10 | 56.20070 | 24.42734 | 2332 ft | 108 kts | 342° |
| 2026-05-04 22:10 | 56.20811 | 24.42520 | 2321 ft | 107 kts | 342° |
| 2026-05-04 22:10 | 56.21546 | 24.42314 | 2330 ft | 106 kts | 342° |
| 2026-05-04 22:10 | 56.22277 | 24.42116 | 2333 ft | 106 kts | 342° |
| 2026-05-04 22:11 | 56.23012 | 24.41915 | 2329 ft | 107 kts | 342° |
| 2026-05-04 22:11 | 56.23498 | 24.41782 | 2328 ft | 106 kts | 342° |
| 2026-05-04 22:11 | 56.24232 | 24.41583 | 2329 ft | 106 kts | 342° |
| 2026-05-04 22:11 | 56.24962 | 24.41384 | 2328 ft | 105 kts | 342° |
| 2026-05-04 22:12 | 56.25681 | 24.41190 | 2327 ft | 104 kts | 342° |
| 2026-05-04 22:12 | 56.26392 | 24.40999 | 2322 ft | 103 kts | 342° |
| 2026-05-04 22:12 | 56.27323 | 24.40751 | 2327 ft | 102 kts | 342° |
| 2026-05-04 22:12 | 56.27798 | 24.40624 | 2334 ft | 102 kts | 342° |
| 2026-05-04 22:13 | 56.28505 | 24.40436 | 2338 ft | 103 kts | 342° |
| 2026-05-04 22:13 | 56.29217 | 24.40245 | 2334 ft | 104 kts | 342° |
| 2026-05-04 22:13 | 56.29927 | 24.40055 | 2324 ft | 103 kts | 342° |
| 2026-05-04 22:13 | 56.30632 | 24.39871 | 2334 ft | 102 kts | 342° |
| 2026-05-04 22:14 | 56.31337 | 24.39688 | 2329 ft | 102 kts | 342° |
| 2026-05-04 22:14 | 56.32040 | 24.39503 | 2324 ft | 102 kts | 341° |
| 2026-05-04 22:14 | 56.32739 | 24.39285 | 2323 ft | 102 kts | 340° |
| 2026-05-04 22:14 | 56.33431 | 24.39051 | 2326 ft | 103 kts | 340° |
| 2026-05-04 22:15 | 56.34133 | 24.38807 | 2327 ft | 103 kts | 340° |
| 2026-05-04 22:15 | 56.34834 | 24.38545 | 2327 ft | 103 kts | 338° |
| 2026-05-04 22:15 | 56.35527 | 24.38239 | 2326 ft | 103 kts | 336° |
| 2026-05-04 22:15 | 56.36222 | 24.37911 | 2333 ft | 103 kts | 336° |
| 2026-05-04 22:16 | 56.36917 | 24.37572 | 2328 ft | 104 kts | 335° |
| 2026-05-04 22:16 | 56.37612 | 24.37230 | 2323 ft | 104 kts | 335° |
| 2026-05-04 22:16 | 56.38307 | 24.36892 | 2333 ft | 103 kts | 335° |
| 2026-05-04 22:16 | 56.39001 | 24.36555 | 2337 ft | 103 kts | 335° |
| 2026-05-04 22:17 | 56.39693 | 24.36218 | 2326 ft | 102 kts | 335° |
| 2026-05-04 22:17 | 56.40378 | 24.35881 | 2322 ft | 102 kts | 335° |
| 2026-05-04 22:17 | 56.41061 | 24.35543 | 2327 ft | 102 kts | 335° |
| 2026-05-04 22:17 | 56.41748 | 24.35198 | 2336 ft | 103 kts | 335° |
| 2026-05-04 22:18 | 56.42439 | 24.34842 | 2331 ft | 104 kts | 335° |
| 2026-05-04 22:18 | 56.43135 | 24.34499 | 2333 ft | 106 kts | 337° |
| 2026-05-04 22:18 | 56.43915 | 24.34129 | 1901 ft | 130 kts | 337° |
| 2026-05-04 22:18 | 56.44741 | 24.33633 | 1648 ft | 119 kts | 332° |
| 2026-05-04 22:19 | 56.45469 | 24.33049 | 1421 ft | 110 kts | 322° |
| 2026-05-04 22:19 | 56.46056 | 24.32206 | 1154 ft | 108 kts | 311° |
| 2026-05-04 22:19 | 56.46566 | 24.31225 | 1034 ft | 107 kts | 306° |
| 2026-05-04 22:19 | 56.47039 | 24.30206 | 984 ft | 104 kts | 305° |
| 2026-05-04 22:20 | 56.47480 | 24.29199 | 1001 ft | 101 kts | 302° |
| 2026-05-04 22:20 | 56.47880 | 24.28156 | 1005 ft | 102 kts | 305° |
| 2026-05-04 22:20 | 56.48454 | 24.27418 | 1058 ft | 104 kts | 333° |
| 2026-05-04 22:20 | 56.49145 | 24.27009 | 1068 ft | 106 kts | 335° |
| 2026-05-04 22:21 | 56.49849 | 24.26575 | 1080 ft | 106 kts | 333° |
| 2026-05-04 22:21 | 56.50515 | 24.26051 | 1117 ft | 104 kts | 329° |
| 2026-05-04 22:21 | 56.51180 | 24.25542 | 1158 ft | 106 kts | 336° |
| 2026-05-04 22:21 | 56.51892 | 24.25182 | 1162 ft | 107 kts | 340° |
| 2026-05-04 22:22 | 56.52627 | 24.24903 | 1166 ft | 108 kts | 342° |
| 2026-05-04 22:22 | 56.53381 | 24.24690 | 1185 ft | 110 kts | 347° |
| 2026-05-04 22:22 | 56.54127 | 24.24457 | 1198 ft | 108 kts | 340° |
| 2026-05-04 22:22 | 56.54854 | 24.24103 | 1206 ft | 109 kts | 338° |
| 2026-05-04 22:23 | 56.55593 | 24.23764 | 1193 ft | 111 kts | 340° |
| 2026-05-04 22:23 | 56.56346 | 24.23464 | 1178 ft | 111 kts | 342° |
| 2026-05-04 22:23 | 56.57118 | 24.23244 | 1167 ft | 112 kts | 346° |
| 2026-05-04 22:23 | 56.57894 | 24.23073 | 1165 ft | 112 kts | 348° |
| 2026-05-04 22:24 | 56.58673 | 24.22940 | 1146 ft | 113 kts | 348° |
| 2026-05-04 22:24 | 56.59450 | 24.22802 | 1146 ft | 111 kts | 348° |
| 2026-05-04 22:24 | 56.60223 | 24.22676 | 1135 ft | 112 kts | 348° |
| 2026-05-04 22:24 | 56.60992 | 24.22539 | 1127 ft | 112 kts | 348° |
| 2026-05-04 22:25 | 56.61768 | 24.22394 | 1117 ft | 112 kts | 348° |
| 2026-05-04 22:25 | 56.62554 | 24.22352 | 1106 ft | 114 kts | 356° |
| 2026-05-04 22:25 | 56.63355 | 24.22492 | 1081 ft | 117 kts | 4° |
| 2026-05-04 22:25 | 56.64160 | 24.22667 | 1067 ft | 115 kts | 359° |
| 2026-05-04 22:26 | 56.64946 | 24.22670 | 1076 ft | 112 kts | 353° |
| 2026-05-04 22:26 | 56.65734 | 24.22642 | 1025 ft | 114 kts | 355° |
| 2026-05-04 22:26 | 56.66506 | 24.22671 | 1049 ft | 112 kts | 356° |
| 2026-05-04 22:26 | 56.67285 | 24.22734 | 1063 ft | 112 kts | 355° |
| 2026-05-04 22:27 | 56.68073 | 24.22754 | 1054 ft | 113 kts | 354° |
| 2026-05-04 22:27 | 56.68858 | 24.22783 | 1062 ft | 113 kts | 355° |
| 2026-05-04 22:27 | 56.69648 | 24.22844 | 1041 ft | 114 kts | 357° |
| 2026-05-04 22:27 | 56.70431 | 24.22893 | 1041 ft | 113 kts | 356° |
| 2026-05-04 22:28 | 56.71217 | 24.22943 | 1038 ft | 113 kts | 356° |
| 2026-05-04 22:28 | 56.71995 | 24.22984 | 1066 ft | 110 kts | 355° |
| 2026-05-04 22:28 | 56.72761 | 24.22970 | 1085 ft | 110 kts | 351° |
| 2026-05-04 22:28 | 56.73523 | 24.22938 | 1096 ft | 110 kts | 354° |
| 2026-05-04 22:29 | 56.74288 | 24.22948 | 1111 ft | 110 kts | 355° |
| 2026-05-04 22:29 | 56.75064 | 24.23059 | 1124 ft | 112 kts | 356° |
| 2026-05-04 22:29 | 56.75839 | 24.23080 | 1156 ft | 111 kts | 353° |
| 2026-05-04 22:29 | 56.76616 | 24.23021 | 1141 ft | 113 kts | 351° |
| 2026-05-04 22:30 | 56.77393 | 24.22941 | 1141 ft | 111 kts | 350° |
| 2026-05-04 22:30 | 56.78166 | 24.22835 | 1134 ft | 111 kts | 350° |
| 2026-05-04 22:30 | 56.78939 | 24.22746 | 1143 ft | 112 kts | 348° |
| 2026-05-04 22:30 | 56.79708 | 24.22626 | 1165 ft | 110 kts | 348° |
| 2026-05-04 22:31 | 56.80475 | 24.22479 | 1141 ft | 111 kts | 348° |
| 2026-05-04 22:31 | 56.81234 | 24.22337 | 1145 ft | 111 kts | 348° |
| 2026-05-04 22:31 | 56.82003 | 24.22184 | 1151 ft | 111 kts | 347° |
| 2026-05-04 22:31 | 56.82764 | 24.22014 | 1179 ft | 110 kts | 346° |
| 2026-05-04 22:32 | 56.83531 | 24.21835 | 1198 ft | 111 kts | 347° |
| 2026-05-04 22:32 | 56.84304 | 24.21689 | 1218 ft | 112 kts | 348° |
| 2026-05-04 22:32 | 56.85080 | 24.21534 | 1240 ft | 112 kts | 348° |
| 2026-05-04 22:32 | 56.85857 | 24.21409 | 1203 ft | 113 kts | 351° |
| 2026-05-04 22:33 | 56.86647 | 24.21408 | 1174 ft | 115 kts | 356° |
| 2026-05-04 22:33 | 56.87447 | 24.21514 | 1104 ft | 116 kts | 359° |
| 2026-05-04 22:33 | 56.88246 | 24.21597 | 1070 ft | 114 kts | 357° |
| 2026-05-04 22:33 | 56.89050 | 24.21679 | 1036 ft | 117 kts | 359° |
| 2026-05-04 22:34 | 56.89847 | 24.21770 | 1061 ft | 115 kts | 358° |
| 2026-05-04 22:34 | 56.90651 | 24.21848 | 1043 ft | 117 kts | 358° |
| 2026-05-04 22:34 | 56.91450 | 24.21957 | 1072 ft | 113 kts | 359° |
| 2026-05-04 22:34 | 56.92241 | 24.22077 | 1035 ft | 115 kts | 358° |
| 2026-05-04 22:35 | 56.93025 | 24.21986 | 1001 ft | 110 kts | 345° |
| 2026-05-04 22:35 | 56.93769 | 24.21661 | 908 ft | 110 kts | 342° |
| 2026-05-04 22:35 | 56.94509 | 24.21342 | 844 ft | 110 kts | 343° |
| 2026-05-04 22:35 | 56.95251 | 24.21039 | 811 ft | 108 kts | 344° |
| 2026-05-04 22:36 | 56.95973 | 24.20749 | 807 ft | 105 kts | 344° |
| 2026-05-04 22:36 | 56.96683 | 24.20484 | 779 ft | 106 kts | 345° |
| 2026-05-04 22:36 | 56.97403 | 24.20187 | 769 ft | 105 kts | 344° |
| 2026-05-04 22:36 | 56.98117 | 24.19862 | 705 ft | 105 kts | 336° |
| 2026-05-04 22:37 | 56.98590 | 24.18944 | 606 ft | 100 kts | 275° |
| 2026-05-04 22:37 | 56.98377 | 24.17831 | 652 ft | 93 kts | 245° |
| 2026-05-04 22:37 | 56.98175 | 24.16694 | 689 ft | 93 kts | 256° |
| 2026-05-04 22:37 | 56.98020 | 24.15534 | 675 ft | 95 kts | 258° |
| 2026-05-04 22:38 | 56.97999 | 24.14326 | 699 ft | 95 kts | 271° |
| 2026-05-04 22:38 | 56.98008 | 24.13120 | 701 ft | 96 kts | 276° |
| 2026-05-04 22:38 | 56.98362 | 24.12077 | 692 ft | 104 kts | 320° |
| 2026-05-04 22:38 | 56.99001 | 24.11499 | 574 ft | 99 kts | 334° |
| 2026-05-04 22:39 | 56.99625 | 24.10993 | 406 ft | 96 kts | 333° |
| 2026-05-04 22:39 | 57.00206 | 24.10527 | 374 ft | 87 kts | 333° |
| 2026-05-04 22:39 | 57.00736 | 24.10068 | 399 ft | 81 kts | 330° |
| 2026-05-04 22:39 | 57.01252 | 24.09619 | 378 ft | 82 kts | 331° |
| 2026-05-04 22:40 | 57.01653 | 24.08934 | 339 ft | 80 kts | 286° |
| 2026-05-04 22:40 | 57.01595 | 24.07958 | 351 ft | 78 kts | 249° |
| 2026-05-04 22:40 | 57.01396 | 24.07093 | 372 ft | 70 kts | 245° |
| 2026-05-04 22:40 | 57.01180 | 24.06293 | 354 ft | 70 kts | 238° |
| 2026-05-04 22:41 | 57.00738 | 24.05933 | 306 ft | 76 kts | 180° |
| 2026-05-04 22:41 | 57.00248 | 24.06252 | 223 ft | 77 kts | 154° |
| 2026-05-04 22:41 | 56.99797 | 24.06752 | 69 ft | 73 kts | 154° |
| 2026-05-04 22:41 | 56.99399 | 24.07205 | 12 ft | 59 kts | 150° |
| 2026-05-04 22:42 | 56.99134 | 24.07506 | 10 ft | 28 kts | 147° |
| 2026-05-04 22:42 | 56.99001 | 24.07659 | 9 ft | 21 kts | 145° |
| 2026-05-04 22:42 | 56.98879 | 24.07798 | 8 ft | 19 kts | 149° |
| 2026-05-04 22:42 | 56.98767 | 24.07927 | 7 ft | 19 kts | 151° |
| 2026-05-04 22:43 | 56.98656 | 24.08052 | 9 ft | 19 kts | 146° |
| 2026-05-04 22:43 | 56.98541 | 24.08179 | 9 ft | 19 kts | 153° |
| 2026-05-04 22:43 | 56.98449 | 24.08230 | 9 ft | 14 kts | 184° |
| 2026-05-04 22:43 | 56.98342 | 24.08202 | 9 ft | 17 kts | 188° |
| 2026-05-04 22:44 | 56.98213 | 24.08169 | 9 ft | 20 kts | 188° |
| 2026-05-04 22:44 | 56.98091 | 24.08062 | 9 ft | 19 kts | 211° |
| 2026-05-04 22:44 | 56.97995 | 24.07926 | 9 ft | 15 kts | 242° |
| 2026-05-04 22:44 | 56.97955 | 24.07763 | 9 ft | 14 kts | 251° |
| 2026-05-04 22:45 | 56.97914 | 24.07610 | 9 ft | 12 kts | 230° |
| 2026-05-04 22:45 | 56.97838 | 24.07491 | 9 ft | 7 kts | 173° |
| 2026-05-04 22:45 | 56.97823 | 24.07513 | 9 ft | 0 kts | 126° |